Clenchwarton, United Kingdom
Current Conditions -  °F | °C
As of 2:50 AM on Thursday 27 Nov 2014 (Local Time) from EGYM Reporting Station
Overcast Overcast  
Wind Chill: 46°   Ceiling: 100
Heat Index: 46°   Visibility: 1mi
Dew Point: 46°   Wind: 3mph
Humidity: 100%   Direction: 100°E
Pressure: 29.68"   Gusts: NA
Location:  52.76°N, 0.36°E
Report Text: EGYM 270250Z AUTO 10003KT 1700 OVC001/// 08/08 Q1005
Loading
Personal Weather Stations






























Interactive Weather Map New forecast layout! Learn more

10-Day Weather Forecast

Advertisements
Track Severe Weather on mobile